South Bend, Nebraska
Current Conditions -  °F | °C
As of 10:35 AM on Saturday 22 Nov 2014 (Local Time) from KMLE Reporting Station
Haze Haze  
Wind Chill: 35°   Ceiling: 500
Heat Index: 41°   Visibility: 5mi
Dew Point: 38°   Wind: 9mph
Humidity: 89%   Direction: 190°S
Pressure: 29.84"   Gusts: 16mph
Location:  41°N, 96.25°W
Report Text: KMLE 221635Z AUTO 19008G14KT 150V230 5SM BR OVC005 05/03 A2984 RMK AO2 LTG DSNT SW T00480032
Loading
Personal Weather Stations






























Interactive Weather Map New forecast layout! Learn more

10-Day Weather Forecast

Advertisements
Track Severe Weather on mobile